Dugger, Indiana
Current Conditions -  °F | °C
As of 4:15 AM on Monday 24 Nov 2014 (Local Time) from KRSV Reporting Station
Overcast Overcast  
Wind Chill: 56°   Ceiling: 2100
Heat Index: 56°   Visibility: 10mi
Dew Point: 55°   Wind: 14mph
Humidity: 94%   Direction: 200°SSW
Pressure: 29.21"   Gusts: NA
Location:  39.07°N, 87.26°W
Report Text: KRSV 240915Z AUTO 20012KT 10SM SCT016 BKN021 OVC037 14/13 A2921 RMK AO2 LTG DSNT NE T01360127
Loading
Personal Weather Stations






























Interactive Weather Map New forecast layout! Learn more

10-Day Weather Forecast

Advertisements
Track Severe Weather on mobile